Time;durP1;ratioP1;P1;durP2;ratioP2;P2;SDS_P1;SDS_P2;PMS_P1;PMS_P2;Temp;Humidity;BMP_temperature;BMP_pressure;BME280_temperature;BME280_humidity;BME280_pressure;Samples;Min_cycle;Max_cycle;Signal;HPM_P1;HPM_P2
2023/07/29 08:30:18;;;;;;;;;7.00;7.00;;;;;;;;5116050;27;13455;-77
2023/07/29 08:32:44;;;;;;;;;3.00;3.00;;;;;;;;5086769;28;8806;-77
2023/07/29 08:35:09;;;;;;;;;6.00;5.00;;;;;;;;5086750;28;8810;-76
2023/07/29 08:37:35;;;;;;;;;4.00;4.00;;;;;;;;5085797;28;8890;-76
2023/07/29 08:40:00;;;;;;;;;3.25;3.25;;;;;;;;5084559;28;8814;-75
2023/07/29 08:42:29;;;;;;;;;5.25;5.25;;;;;;;;5087620;28;8807;-76
2023/07/29 08:44:54;;;;;;;;;3.80;3.80;;;;;;;;5087903;28;8794;-80
2023/07/29 08:47:20;;;;;;;;;4.50;4.50;;;;;;;;5087819;28;9674;-76
2023/07/29 08:49:46;;;;;;;;;3.00;3.00;;;;;;;;5087828;28;8822;-80
2023/07/29 08:52:12;;;;;;;;;9.60;9.60;;;;;;;;5086215;28;9541;-73
2023/07/29 08:54:37;;;;;;;;;4.75;4.75;;;;;;;;5086405;28;8798;-78
2023/07/29 08:57:02;;;;;;;;;3.00;3.00;;;;;;;;5087539;28;8798;-78
2023/07/29 08:59:28;;;;;;;;;4.00;4.00;;;;;;;;5087894;28;8790;-78
2023/07/29 09:01:57;;;;;;;;;5.75;4.00;;;;;;;;5087752;28;8794;-75
2023/07/29 09:04:23;;;;;;;;;6.80;4.60;;;;;;;;5087606;28;9709;-79
2023/07/29 09:06:50;;;;;;;;;4.50;4.00;;;;;;;;5087621;28;8811;-79
2023/07/29 09:09:15;;;;;;;;;4.00;4.00;;;;;;;;5087304;28;11497;-78
2023/07/29 09:11:40;;;;;;;;;6.00;5.50;;;;;;;;5085946;28;8899;-79
2023/07/29 09:14:05;;;;;;;;;4.00;4.00;;;;;;;;5087644;28;8907;-78
2023/07/29 09:16:31;;;;;;;;;4.25;4.00;;;;;;;;5087441;28;8778;-77
2023/07/29 09:19:00;;;;;;;;;6.25;4.50;;;;;;;;5087447;28;8810;-78
2023/07/29 09:21:26;;;;;;;;;4.60;4.20;;;;;;;;5087313;28;8794;-78
2023/07/29 09:23:52;;;;;;;;;6.60;5.20;;;;;;;;5087240;28;8940;-78
2023/07/29 09:26:25;;;;;;;;;6.75;5.00;;;;;;;;5085796;28;8924;-78
2023/07/29 09:28:57;;;;;;;;;7.80;7.00;;;;;;;;5086695;28;8923;-76
2023/07/29 09:31:24;;;;;;;;;6.80;5.00;;;;;;;;5086984;28;8804;-78
2023/07/29 09:33:49;;;;;;;;;8.20;8.20;;;;;;;;5086925;28;8834;-75
2023/07/29 09:36:14;;;;;;;;;9.00;8.75;;;;;;;;5087004;28;8814;-78
2023/07/29 09:38:40;;;;;;;;;5.75;5.75;;;;;;;;5086354;28;8869;-78
2023/07/29 09:41:05;;;;;;;;;6.50;5.75;;;;;;;;5075649;28;8841;-78
2023/07/29 09:43:32;;;;;;;;;5.50;5.50;;;;;;;;5071740;28;8819;-77
2023/07/29 09:46:01;;;;;;;;;6.20;6.00;;;;;;;;5072832;28;8818;-78
2023/07/29 09:48:28;;;;;;;;;5.20;5.20;;;;;;;;5072805;28;8822;-76
2023/07/29 09:50:53;;;;;;;;;6.00;6.00;;;;;;;;5073337;28;8924;-80
2023/07/29 09:53:19;;;;;;;;;5.00;5.00;;;;;;;;5072016;28;8819;-83
2023/07/29 09:55:50;;;;;;;;;5.00;5.00;;;;;;;;5073152;28;8813;-76
2023/07/29 09:58:19;;;;;;;;;5.00;5.00;;;;;;;;5073073;28;8807;-74
2023/07/29 10:00:45;;;;;;;;;6.40;6.00;;;;;;;;5072514;28;8823;-75
2023/07/29 10:03:11;;;;;;;;;5.00;5.00;;;;;;;;5072435;28;9567;-75
2023/07/29 10:05:38;;;;;;;;;6.50;6.50;;;;;;;;5072502;28;8783;-74
2023/07/29 10:08:04;;;;;;;;;6.00;6.00;;;;;;;;5072475;28;8799;-74
2023/07/29 10:10:29;;;;;;;;;9.33;6.33;;;;;;;;5071210;28;8810;-79
2023/07/29 10:12:54;;;;;;;;;6.33;6.33;;;;;;;;5072829;28;8842;-77
2023/07/29 10:15:20;;;;;;;;;6.00;4.00;;;;;;;;5072774;28;8798;-77
2023/07/29 10:17:46;;;;;;;;;10.33;9.00;;;;;;;;5072627;28;8830;-72
2023/07/29 10:20:11;;;;;;;;;8.00;7.50;;;;;;;;5063653;28;8818;-72
2023/07/29 10:22:41;;;;;;;;;6.33;6.33;;;;;;;;5052582;28;8839;-71
2023/07/29 10:25:16;;;;;;;;;3.00;3.00;;;;;;;;5074003;28;8808;-71
2023/07/29 10:27:56;;;;;;;;;6.75;6.00;;;;;;;;5090693;28;8804;-71
2023/07/29 10:30:21;;;;;;;;;7.50;7.50;;;;;;;;5092520;28;8776;-71
2023/07/29 10:32:48;;;;;;;;;9.00;9.00;;;;;;;;5092562;28;8788;-70
2023/07/29 10:35:13;;;;;;;;;6.80;6.80;;;;;;;;5091403;28;9789;-71
2023/07/29 10:37:39;;;;;;;;;6.00;6.00;;;;;;;;5092534;28;8930;-72
2023/07/29 10:40:08;;;;;;;;;6.00;6.00;;;;;;;;5074092;28;8802;-72
2023/07/29 10:42:33;;;;;;;;;6.75;5.50;;;;;;;;5077921;28;8804;-71
2023/07/29 10:44:58;;;;;;;;;7.00;5.75;;;;;;;;5091580;28;8842;-70
2023/07/29 10:47:25;;;;;;;;;8.00;8.00;;;;;;;;5086700;28;8816;-71
2023/07/29 10:49:54;;;;;;;;;8.00;8.00;;;;;;;;5091592;28;8827;-71
2023/07/29 10:52:30;;;;;;;;;12.00;11.00;;;;;;;;5089721;28;8820;-72
2023/07/29 10:54:56;;;;;;;;;8.25;8.25;;;;;;;;5092141;28;8859;-70
2023/07/29 10:57:34;;;;;;;;;18.00;18.00;;;;;;;;5092068;28;9514;-71
2023/07/29 11:00:00;;;;;;;;;7.75;7.00;;;;;;;;5091802;28;8824;-70
2023/07/29 11:02:29;;;;;;;;;9.00;8.00;;;;;;;;5091954;28;8788;-70
2023/07/29 11:04:55;;;;;;;;;10.25;8.50;;;;;;;;5071976;28;8821;-71
2023/07/29 11:07:26;;;;;;;;;11.67;11.33;;;;;;;;5070910;28;8795;-71
2023/07/29 11:09:56;;;;;;;;;9.50;8.50;;;;;;;;5070586;28;8818;-72
2023/07/29 11:12:37;;;;;;;;;16.75;15.25;;;;;;;;5071295;28;8825;-70
2023/07/29 11:15:23;;;;;;;;;8.75;8.25;;;;;;;;5071549;28;8787;-68
2023/07/29 11:17:49;;;;;;;;;17.00;17.00;;;;;;;;5051136;28;8809;-66
2023/07/29 11:20:16;;;;;;;;;17.75;16.00;;;;;;;;5051320;28;8785;-67
2023/07/29 11:22:42;;;;;;;;;19.00;18.25;;;;;;;;5051671;28;8801;-67
2023/07/29 11:25:09;;;;;;;;;12.50;11.50;;;;;;;;5051307;28;8797;-67
2023/07/29 11:27:35;;;;;;;;;22.75;20.50;;;;;;;;5051352;28;8807;-67
2023/07/29 11:30:01;;;;;;;;;23.00;20.33;;;;;;;;5051282;28;8821;-67
2023/07/29 11:32:27;;;;;;;;;21.75;18.75;;;;;;;;5051362;28;9581;-67
2023/07/29 11:34:52;;;;;;;;;13.33;13.33;;;;;;;;5051193;28;8801;-66
2023/07/29 11:37:17;;;;;;;;;14.67;11.67;;;;;;;;5051198;28;8874;-70
2023/07/29 11:39:44;;;;;;;;;21.00;18.00;;;;;;;;5062153;28;8823;-71
2023/07/29 11:42:15;;;;;;;;;17.25;16.50;;;;;;;;5070838;28;9638;-70
2023/07/29 11:44:41;;;;;;;;;15.50;13.50;;;;;;;;5070930;28;8783;-70
2023/07/29 11:47:10;;;;;;;;;11.00;11.00;;;;;;;;5070505;28;8787;-68
2023/07/29 11:49:35;;;;;;;;;10.25;10.25;;;;;;;;5070149;28;8834;-69
2023/07/29 11:52:02;;;;;;;;;17.00;16.67;;;;;;;;5070233;28;8861;-69
2023/07/29 11:54:28;;;;;;;;;7.50;7.50;;;;;;;;5069887;28;8813;-69
2023/07/29 11:56:53;;;;;;;;;17.67;17.67;;;;;;;;5068791;28;8810;-69
2023/07/29 11:59:19;;;;;;;;;18.67;17.67;;;;;;;;5068457;28;8853;-70
2023/07/29 12:01:45;;;;;;;;;10.50;10.50;;;;;;;;5069995;28;8923;-71
2023/07/29 12:04:10;;;;;;;;;16.00;15.67;;;;;;;;5069890;28;8803;-69
2023/07/29 12:06:37;;;;;;;;;10.67;10.33;;;;;;;;5069438;28;9533;-71
2023/07/29 12:09:02;;;;;;;;;4.50;4.50;;;;;;;;5069373;28;8838;-69
2023/07/29 12:11:28;;;;;;;;;11.33;11.33;;;;;;;;5069624;28;8794;-70
2023/07/29 12:13:54;;;;;;;;;9.67;8.67;;;;;;;;5068275;28;8905;-70
2023/07/29 12:16:19;;;;;;;;;10.00;8.67;;;;;;;;5069308;28;8807;-70
2023/07/29 12:18:44;;;;;;;;;19.33;18.33;;;;;;;;5069606;28;8803;-70
2023/07/29 12:21:10;;;;;;;;;10.00;10.00;;;;;;;;5069089;28;9610;-69
2023/07/29 12:23:35;;;;;;;;;13.33;10.67;;;;;;;;5069664;28;9501;-69
2023/07/29 12:26:01;;;;;;;;;10.00;10.00;;;;;;;;5069742;28;8775;-69
2023/07/29 12:28:26;;;;;;;;;11.33;10.00;;;;;;;;5069694;28;8842;-69
2023/07/29 12:30:55;;;;;;;;;10.00;10.00;;;;;;;;5076289;28;8790;-69
2023/07/29 12:33:34;;;;;;;;;9.50;9.50;;;;;;;;5071986;28;9524;-69
2023/07/29 12:36:00;;;;;;;;;10.00;10.00;;;;;;;;5067027;28;8818;-69
2023/07/29 12:38:29;;;;;;;;;9.33;8.67;;;;;;;;5069430;28;8865;-69
2023/07/29 12:40:54;;;;;;;;;7.25;7.25;;;;;;;;5069435;28;8900;-69
2023/07/29 12:43:20;;;;;;;;;12.67;12.00;;;;;;;;5066931;28;8790;-69
2023/07/29 12:45:45;;;;;;;;;10.00;10.00;;;;;;;;5069667;28;8817;-69
2023/07/29 12:48:11;;;;;;;;;11.00;11.00;;;;;;;;5069647;28;8787;-69
2023/07/29 12:50:37;;;;;;;;;11.00;10.00;;;;;;;;5069448;28;8806;-69
2023/07/29 12:53:02;;;;;;;;;9.33;8.00;;;;;;;;5069492;28;8791;-69
2023/07/29 12:55:28;;;;;;;;;10.00;10.00;;;;;;;;5069226;28;11566;-69
2023/07/29 12:57:53;;;;;;;;;12.67;11.00;;;;;;;;5069674;28;8811;-69
2023/07/29 13:00:18;;;;;;;;;17.00;17.00;;;;;;;;5068033;28;8915;-71
2023/07/29 13:02:43;;;;;;;;;10.00;10.00;;;;;;;;5069768;28;8837;-71
2023/07/29 13:05:10;;;;;;;;;11.67;11.00;;;;;;;;5070111;28;8811;-68
2023/07/29 13:07:36;;;;;;;;;11.25;11.00;;;;;;;;5070108;28;9520;-67
2023/07/29 13:10:01;;;;;;;;;25.00;24.00;;;;;;;;5069823;28;8822;-69
2023/07/29 13:12:26;;;;;;;;;17.00;13.33;;;;;;;;5069985;28;8771;-69
2023/07/29 13:14:51;;;;;;;;;26.00;23.67;;;;;;;;5078049;28;8855;-70
2023/07/29 13:17:17;;;;;;;;;13.00;13.00;;;;;;;;5076874;28;8791;-69
2023/07/29 13:19:42;;;;;;;;;11.33;10.00;;;;;;;;5072924;28;8799;-71
2023/07/29 13:22:07;;;;;;;;;18.67;18.67;;;;;;;;5072897;28;8787;-70
2023/07/29 13:24:32;;;;;;;;;31.00;28.00;;;;;;;;5073430;28;8795;-71
2023/07/29 13:26:58;;;;;;;;;11.67;11.67;;;;;;;;5073340;28;8824;-72
2023/07/29 13:29:23;;;;;;;;;15.00;13.00;;;;;;;;5073082;28;8837;-70
2023/07/29 13:31:48;;;;;;;;;31.67;30.00;;;;;;;;5073247;28;9485;-70
2023/07/29 13:34:14;;;;;;;;;29.00;26.33;;;;;;;;5073077;28;8787;-69
2023/07/29 13:36:39;;;;;;;;;30.33;29.00;;;;;;;;5072978;28;8814;-71
2023/07/29 13:39:04;;;;;;;;;19.33;18.33;;;;;;;;5071969;28;8807;-72
2023/07/29 13:41:30;;;;;;;;;13.00;13.00;;;;;;;;5072904;28;8787;-82
2023/07/29 13:43:55;;;;;;;;;20.67;19.33;;;;;;;;5072576;28;8818;-74
2023/07/29 13:46:21;;;;;;;;;16.00;16.00;;;;;;;;5072869;28;8795;-74
2023/07/29 13:48:46;;;;;;;;;12.00;10.67;;;;;;;;5072945;28;8864;-72
2023/07/29 13:51:11;;;;;;;;;18.00;16.67;;;;;;;;5073108;28;8783;-72
2023/07/29 13:53:36;;;;;;;;;20.00;18.33;;;;;;;;5073004;28;8830;-77
2023/07/29 13:56:02;;;;;;;;;22.00;20.33;;;;;;;;5072572;28;9620;-72
2023/07/29 13:58:27;;;;;;;;;13.00;10.67;;;;;;;;5072756;28;8794;-72
2023/07/29 14:00:52;;;;;;;;;21.00;21.00;;;;;;;;5073127;28;8771;-72
2023/07/29 14:03:18;;;;;;;;;21.67;20.67;;;;;;;;5072959;28;9688;-71
2023/07/29 14:05:43;;;;;;;;;23.33;21.67;;;;;;;;5066312;28;8810;-71
2023/07/29 14:08:08;;;;;;;;;22.67;19.67;;;;;;;;5052731;28;8827;-71
2023/07/29 14:10:33;;;;;;;;;16.67;13.33;;;;;;;;5052657;28;8904;-69
2023/07/29 14:12:59;;;;;;;;;19.67;18.00;;;;;;;;5071462;28;8799;-70
2023/07/29 14:15:24;;;;;;;;;15.33;13.33;;;;;;;;5072136;28;9615;-70
2023/07/29 14:17:50;;;;;;;;;19.00;19.00;;;;;;;;5070867;28;8851;-70
2023/07/29 14:20:15;;;;;;;;;19.33;17.00;;;;;;;;5072275;28;8826;-70
2023/07/29 14:22:40;;;;;;;;;20.00;19.00;;;;;;;;5072613;28;8885;-70
2023/07/29 14:25:06;;;;;;;;;7.67;7.67;;;;;;;;5072424;28;8837;-70
2023/07/29 14:27:31;;;;;;;;;12.67;12.33;;;;;;;;5070949;28;8825;-70
2023/07/29 14:29:56;;;;;;;;;17.33;16.00;;;;;;;;5072237;28;9031;-71
2023/07/29 14:32:22;;;;;;;;;14.00;14.00;;;;;;;;5072608;28;8778;-70
2023/07/29 14:34:48;;;;;;;;;15.33;14.67;;;;;;;;5072274;28;8795;-71
2023/07/29 14:37:14;;;;;;;;;17.25;17.25;;;;;;;;5066046;28;8840;-70
2023/07/29 14:39:39;;;;;;;;;11.00;11.00;;;;;;;;5069494;28;8834;-71
2023/07/29 14:42:04;;;;;;;;;15.33;15.33;;;;;;;;5070820;28;8813;-70
2023/07/29 14:44:30;;;;;;;;;9.00;9.00;;;;;;;;5069538;28;8802;-71
2023/07/29 14:46:55;;;;;;;;;11.67;11.67;;;;;;;;5070777;28;8821;-70
2023/07/29 14:49:20;;;;;;;;;9.67;9.33;;;;;;;;5070614;28;8822;-71
2023/07/29 14:51:45;;;;;;;;;19.33;17.00;;;;;;;;5069354;28;8909;-71
2023/07/29 14:54:11;;;;;;;;;19.00;17.00;;;;;;;;5070723;28;9052;-71
2023/07/29 14:56:36;;;;;;;;;9.67;9.67;;;;;;;;5070626;28;8840;-70
2023/07/29 14:59:01;;;;;;;;;10.33;10.33;;;;;;;;5071417;28;8794;-72
2023/07/29 15:01:26;;;;;;;;;14.67;14.33;;;;;;;;5071352;28;8817;-73
2023/07/29 15:03:52;;;;;;;;;13.67;13.67;;;;;;;;5065904;28;8829;-73
2023/07/29 15:06:17;;;;;;;;;16.33;15.33;;;;;;;;5069596;28;8795;-72
2023/07/29 15:08:42;;;;;;;;;13.00;13.00;;;;;;;;5069542;28;8834;-73
2023/07/29 15:11:07;;;;;;;;;12.33;12.00;;;;;;;;5069247;28;8810;-73
2023/07/29 15:13:33;;;;;;;;;11.33;10.67;;;;;;;;5070861;28;8932;-72
2023/07/29 15:15:58;;;;;;;;;6.67;6.00;;;;;;;;5062970;28;8818;-74
2023/07/29 15:18:23;;;;;;;;;25.67;21.00;;;;;;;;5051391;28;8813;-74
2023/07/29 15:20:48;;;;;;;;;7.67;7.00;;;;;;;;5051515;28;8828;-72
2023/07/29 15:23:14;;;;;;;;;12.67;9.00;;;;;;;;5052672;28;8838;-72
2023/07/29 15:25:39;;;;;;;;;7.33;7.33;;;;;;;;5070922;28;8810;-71
2023/07/29 15:28:05;;;;;;;;;9.00;8.33;;;;;;;;5052185;28;8816;-70
2023/07/29 15:30:30;;;;;;;;;19.33;16.00;;;;;;;;5051223;28;8804;-70
2023/07/29 15:32:55;;;;;;;;;8.00;7.67;;;;;;;;5051069;28;8801;-70
2023/07/29 15:35:23;;;;;;;;;7.00;6.67;;;;;;;;5067242;28;8880;-70
2023/07/29 15:37:48;;;;;;;;;13.50;13.00;;;;;;;;5080787;28;8800;-70
2023/07/29 15:40:14;;;;;;;;;15.67;14.33;;;;;;;;5091057;28;8865;-71
2023/07/29 15:42:39;;;;;;;;;9.00;9.00;;;;;;;;5090952;28;8923;-69
2023/07/29 15:45:04;;;;;;;;;7.33;7.33;;;;;;;;5091285;28;8768;-68
2023/07/29 15:47:30;;;;;;;;;10.67;8.67;;;;;;;;5085066;28;8806;-68
2023/07/29 15:49:55;;;;;;;;;4.67;4.67;;;;;;;;5069194;28;8826;-69
2023/07/29 15:52:20;;;;;;;;;5.33;5.33;;;;;;;;5070846;28;8782;-69
2023/07/29 15:54:46;;;;;;;;;6.00;6.00;;;;;;;;5070658;28;8803;-69
2023/07/29 15:57:12;;;;;;;;;5.00;5.00;;;;;;;;5070477;28;8809;-69
2023/07/29 15:59:37;;;;;;;;;9.50;8.50;;;;;;;;5070645;28;8810;-70
2023/07/29 16:02:02;;;;;;;;;5.00;5.00;;;;;;;;5070322;28;8790;-67
2023/07/29 16:04:28;;;;;;;;;6.00;6.00;;;;;;;;5070451;28;8799;-70
2023/07/29 16:06:53;;;;;;;;;5.00;5.00;;;;;;;;5070440;28;9513;-69
2023/07/29 16:09:21;;;;;;;;;7.33;7.33;;;;;;;;5070453;28;8830;-71
2023/07/29 16:11:47;;;;;;;;;7.50;6.25;;;;;;;;5063665;28;8926;-70
2023/07/29 16:14:12;;;;;;;;;9.25;8.25;;;;;;;;5056174;28;8848;-71
2023/07/29 16:16:37;;;;;;;;;5.00;5.00;;;;;;;;5071475;28;9528;-72
2023/07/29 16:19:02;;;;;;;;;8.67;7.00;;;;;;;;5068650;28;8806;-72
2023/07/29 16:21:28;;;;;;;;;6.67;6.33;;;;;;;;5060374;28;8902;-70
2023/07/29 16:23:53;;;;;;;;;9.33;9.33;;;;;;;;5048976;28;8939;-70
2023/07/29 16:26:19;;;;;;;;;10.33;8.00;;;;;;;;5049943;28;8817;-70
2023/07/29 16:28:44;;;;;;;;;10.00;8.25;;;;;;;;5049979;28;8844;-71
2023/07/29 16:31:10;;;;;;;;;10.00;8.33;;;;;;;;5048895;28;8883;-71
2023/07/29 16:33:35;;;;;;;;;9.00;9.00;;;;;;;;5050070;28;8919;-70
2023/07/29 16:36:00;;;;;;;;;6.33;6.00;;;;;;;;5052765;28;8825;-70
2023/07/29 16:38:26;;;;;;;;;6.33;6.33;;;;;;;;5058995;28;8813;-71
2023/07/29 16:40:51;;;;;;;;;7.33;7.33;;;;;;;;5049767;28;8824;-71
2023/07/29 16:43:16;;;;;;;;;6.33;6.00;;;;;;;;5047462;28;8902;-70
2023/07/29 16:45:42;;;;;;;;;7.33;6.00;;;;;;;;5053740;28;8812;-71
